createdAt,value
2018-06-28T00:00:08.103Z,11.265408
2018-06-28T00:00:20.563Z,11.265408
2018-06-28T00:00:33.031Z,11.265408
2018-06-28T00:00:45.596Z,11.265408
2018-06-28T00:00:58.017Z,11.265408
2018-06-28T00:01:10.534Z,3.218688
2018-06-28T00:01:23.079Z,3.218688
2018-06-28T00:01:35.498Z,3.218688
2018-06-28T00:01:47.906Z,9.656064
2018-06-28T00:02:00.308Z,9.656064
2018-06-28T00:02:12.728Z,6.437376
2018-06-28T00:02:25.210Z,6.437376
2018-06-28T00:02:37.636Z,6.437376
2018-06-28T00:02:50.049Z,6.437376
2018-06-28T00:03:02.469Z,6.437376
2018-06-28T00:03:14.906Z,1.609344
2018-06-28T00:03:27.331Z,3.218688
2018-06-28T00:03:39.749Z,3.218688
2018-06-28T00:03:52.158Z,3.218688
2018-06-28T00:04:04.597Z,1.609344
2018-06-28T00:04:17.061Z,1.609344
2018-06-28T00:04:29.468Z,4.828032
2018-06-28T00:04:41.877Z,11.265408
2018-06-28T00:04:54.295Z,11.265408
2018-06-28T00:05:06.776Z,11.265408
2018-06-28T00:05:19.186Z,11.265408
2018-06-28T00:05:31.613Z,11.265408
2018-06-28T00:05:44.028Z,11.265408
2018-06-28T00:05:56.440Z,11.265408
2018-06-28T00:06:08.846Z,8.04672
2018-06-28T00:06:21.284Z,8.04672
2018-06-28T00:06:33.703Z,8.04672
2018-06-28T00:06:46.143Z,8.04672
2018-06-28T00:06:58.552Z,8.04672
2018-06-28T00:07:11.126Z,6.437376
2018-06-28T00:07:23.539Z,6.437376
2018-06-28T00:07:35.959Z,6.437376
2018-06-28T00:07:48.372Z,6.437376
2018-06-28T00:08:00.794Z,6.437376
2018-06-28T00:08:13.309Z,1.609344
2018-06-28T00:08:25.720Z,3.218688
2018-06-28T00:08:38.117Z,3.218688
2018-06-28T00:08:50.938Z,3.218688
2018-06-28T00:09:04.183Z,1.609344
2018-06-28T00:09:16.651Z,3.218688
2018-06-28T00:09:29.059Z,3.218688
2018-06-28T00:09:41.505Z,3.218688
2018-06-28T00:09:53.940Z,4.828032
2018-06-28T00:10:06.366Z,9.656064
2018-06-28T00:10:18.776Z,9.656064
2018-06-28T00:10:31.198Z,9.656064
2018-06-28T00:10:43.619Z,9.656064
2018-06-28T00:10:56.033Z,9.656064
2018-06-28T00:11:08.446Z,6.437376
2018-06-28T00:11:20.842Z,6.437376
2018-06-28T00:11:33.250Z,6.437376
2018-06-28T00:11:45.661Z,6.437376
2018-06-28T00:11:58.082Z,6.437376
2018-06-28T00:12:10.502Z,3.218688
2018-06-28T00:12:22.908Z,3.218688
2018-06-28T00:12:35.310Z,3.218688
2018-06-28T00:12:47.748Z,3.218688
2018-06-28T00:13:00.167Z,3.218688
2018-06-28T00:13:12.589Z,6.437376
2018-06-28T00:13:25.055Z,6.437376
2018-06-28T00:13:37.475Z,6.437376
2018-06-28T00:13:49.873Z,6.437376
2018-06-28T00:14:02.312Z,6.437376
2018-06-28T00:14:14.733Z,6.437376
2018-06-28T00:14:27.159Z,6.437376
2018-06-28T00:14:39.586Z,6.437376
2018-06-28T00:14:52.028Z,6.437376
2018-06-28T00:15:04.449Z,1.609344
2018-06-28T00:15:16.880Z,3.218688
2018-06-28T00:15:29.303Z,3.218688
2018-06-28T00:15:41.712Z,3.218688
2018-06-28T00:15:54.153Z,6.437376
2018-06-28T00:16:06.619Z,1.609344
2018-06-28T00:16:19.045Z,3.218688
2018-06-28T00:16:31.464Z,8.04672
2018-06-28T00:16:43.884Z,8.04672
2018-06-28T00:16:56.291Z,8.04672
2018-06-28T00:17:08.700Z,9.656064
2018-06-28T00:17:21.158Z,9.656064
2018-06-28T00:17:33.575Z,9.656064
2018-06-28T00:17:46.030Z,9.656064
2018-06-28T00:17:58.439Z,9.656064
2018-06-28T00:18:11.016Z,0
2018-06-28T00:18:23.421Z,6.437376
2018-06-28T00:18:35.819Z,6.437376
2018-06-28T00:18:48.238Z,6.437376
2018-06-28T00:19:00.641Z,6.437376
2018-06-28T00:19:13.055Z,3.218688
2018-06-28T00:19:25.463Z,3.218688
2018-06-28T00:19:37.892Z,3.218688
2018-06-28T00:19:50.301Z,6.437376
2018-06-28T00:20:02.714Z,8.04672
2018-06-28T00:20:15.127Z,4.828032
2018-06-28T00:20:27.525Z,4.828032
2018-06-28T00:20:39.933Z,4.828032
2018-06-28T00:20:52.340Z,4.828032
2018-06-28T00:21:04.768Z,3.218688
2018-06-28T00:21:17.201Z,3.218688
2018-06-28T00:21:29.631Z,3.218688
2018-06-28T00:21:42.043Z,3.218688
2018-06-28T00:21:54.456Z,3.218688
2018-06-28T00:22:06.881Z,6.437376
2018-06-28T00:22:19.298Z,8.04672
2018-06-28T00:22:31.702Z,9.656064
2018-06-28T00:22:44.119Z,9.656064
2018-06-28T00:22:56.523Z,9.656064
2018-06-28T00:23:08.956Z,3.218688
2018-06-28T00:23:21.360Z,3.218688
2018-06-28T00:23:33.780Z,6.437376
2018-06-28T00:23:46.183Z,6.437376
2018-06-28T00:23:58.748Z,6.437376
2018-06-28T00:24:11.148Z,3.218688
2018-06-28T00:24:23.606Z,3.218688
2018-06-28T00:24:36.018Z,3.218688
2018-06-28T00:24:48.449Z,3.218688
2018-06-28T00:25:00.857Z,3.218688
2018-06-28T00:25:13.270Z,3.218688
2018-06-28T00:25:25.690Z,3.218688
2018-06-28T00:25:38.101Z,3.218688
2018-06-28T00:25:50.578Z,3.218688
2018-06-28T00:26:02.984Z,3.218688
2018-06-28T00:26:15.388Z,1.609344
2018-06-28T00:26:27.793Z,1.609344
2018-06-28T00:26:40.186Z,3.218688
2018-06-28T00:26:52.593Z,3.218688
2018-06-28T00:27:05.007Z,6.437376
2018-06-28T00:27:17.418Z,6.437376
2018-06-28T00:27:29.881Z,6.437376
2018-06-28T00:27:42.302Z,6.437376
2018-06-28T00:27:54.693Z,6.437376
2018-06-28T00:28:07.108Z,4.828032
2018-06-28T00:28:19.546Z,4.828032
2018-06-28T00:28:31.955Z,8.04672
2018-06-28T00:28:44.371Z,8.04672
2018-06-28T00:28:56.773Z,8.04672
2018-06-28T00:29:09.180Z,9.656064
2018-06-28T00:29:21.587Z,9.656064
2018-06-28T00:29:34.007Z,14.484096
2018-06-28T00:29:46.461Z,14.484096
2018-06-28T00:29:58.871Z,14.484096
2018-06-28T00:30:11.333Z,6.437376
2018-06-28T00:30:23.763Z,6.437376
2018-06-28T00:30:36.192Z,8.04672
2018-06-28T00:30:48.609Z,9.656064
2018-06-28T00:31:01.020Z,9.656064
2018-06-28T00:31:13.481Z,8.04672
2018-06-28T00:31:25.892Z,8.04672
2018-06-28T00:31:38.305Z,8.04672
2018-06-28T00:31:50.717Z,8.04672
2018-06-28T00:32:03.141Z,8.04672
2018-06-28T00:32:15.559Z,6.437376
2018-06-28T00:32:27.970Z,6.437376
2018-06-28T00:32:40.504Z,6.437376
2018-06-28T00:32:52.922Z,6.437376
2018-06-28T00:33:05.326Z,6.437376
2018-06-28T00:33:17.866Z,6.437376
2018-06-28T00:33:30.287Z,6.437376
2018-06-28T00:33:42.678Z,9.656064
2018-06-28T00:33:55.078Z,9.656064
2018-06-28T00:34:07.488Z,3.218688
2018-06-28T00:34:19.890Z,4.828032
2018-06-28T00:34:32.300Z,4.828032
2018-06-28T00:34:44.717Z,6.437376
2018-06-28T00:34:57.129Z,8.04672
2018-06-28T00:35:09.551Z,11.265408
2018-06-28T00:35:21.962Z,11.265408
2018-06-28T00:35:34.374Z,11.265408
2018-06-28T00:35:46.786Z,11.265408
2018-06-28T00:35:59.568Z,11.265408
2018-06-28T00:36:12.000Z,9.656064
2018-06-28T00:36:24.467Z,9.656064
2018-06-28T00:36:36.874Z,9.656064
2018-06-28T00:36:49.282Z,9.656064
2018-06-28T00:37:01.693Z,9.656064
2018-06-28T00:37:14.113Z,11.265408
2018-06-28T00:37:26.567Z,12.874752
2018-06-28T00:37:39.027Z,12.874752
2018-06-28T00:37:51.432Z,12.874752
2018-06-28T00:38:03.850Z,6.437376
2018-06-28T00:38:16.257Z,8.04672
2018-06-28T00:38:28.656Z,8.04672
2018-06-28T00:38:41.047Z,8.04672
2018-06-28T00:38:53.461Z,8.04672
2018-06-28T00:39:05.932Z,1.609344
2018-06-28T00:39:18.321Z,4.828032
2018-06-28T00:39:30.743Z,4.828032
2018-06-28T00:39:43.161Z,8.04672
2018-06-28T00:39:55.591Z,8.04672
2018-06-28T00:40:08.004Z,8.04672
2018-06-28T00:40:20.425Z,9.656064
2018-06-28T00:40:32.841Z,9.656064
2018-06-28T00:40:45.268Z,9.656064
2018-06-28T00:40:57.670Z,9.656064
2018-06-28T00:41:10.140Z,6.437376
2018-06-28T00:41:22.552Z,6.437376
2018-06-28T00:41:34.955Z,6.437376
2018-06-28T00:41:47.379Z,6.437376
2018-06-28T00:41:59.779Z,6.437376
2018-06-28T00:42:12.188Z,4.828032
2018-06-28T00:42:24.607Z,6.437376
2018-06-28T00:42:37.064Z,8.04672
2018-06-28T00:42:49.525Z,8.04672
2018-06-28T00:43:01.928Z,8.04672
2018-06-28T00:43:14.338Z,4.828032
2018-06-28T00:43:26.745Z,4.828032
2018-06-28T00:43:39.339Z,6.437376
2018-06-28T00:43:52.459Z,6.437376
2018-06-28T00:44:04.894Z,6.437376
2018-06-28T00:44:17.305Z,8.04672
2018-06-28T00:44:29.705Z,8.04672
2018-06-28T00:44:42.113Z,8.04672
2018-06-28T00:44:54.566Z,8.04672
2018-06-28T00:45:06.980Z,1.609344
2018-06-28T00:45:19.396Z,3.218688
2018-06-28T00:45:31.813Z,3.218688
2018-06-28T00:45:44.226Z,6.437376
2018-06-28T00:45:56.842Z,6.437376
2018-06-28T00:46:09.249Z,6.437376
2018-06-28T00:46:21.647Z,8.04672
2018-06-28T00:46:34.061Z,8.04672
2018-06-28T00:46:46.470Z,9.656064
2018-06-28T00:46:58.879Z,11.265408
2018-06-28T00:47:11.304Z,9.656064
2018-06-28T00:47:23.712Z,9.656064
2018-06-28T00:47:36.177Z,9.656064
2018-06-28T00:47:48.579Z,9.656064
2018-06-28T00:48:00.984Z,9.656064
2018-06-28T00:48:13.400Z,1.609344
2018-06-28T00:48:25.809Z,6.437376
2018-06-28T00:48:38.384Z,8.04672
2018-06-28T00:48:50.794Z,8.04672
2018-06-28T00:49:03.202Z,8.04672
2018-06-28T00:49:15.637Z,8.04672
2018-06-28T00:49:28.099Z,9.656064
2018-06-28T00:49:40.508Z,9.656064
2018-06-28T00:49:52.908Z,9.656064
2018-06-28T00:50:05.315Z,6.437376
2018-06-28T00:50:17.823Z,6.437376
2018-06-28T00:50:30.218Z,6.437376
2018-06-28T00:50:42.621Z,6.437376
2018-06-28T00:50:55.033Z,6.437376
2018-06-28T00:51:07.458Z,1.609344
2018-06-28T00:51:19.863Z,1.609344
2018-06-28T00:51:32.272Z,1.609344
2018-06-28T00:51:44.682Z,3.218688
2018-06-28T00:51:57.090Z,6.437376
2018-06-28T00:52:09.500Z,4.828032
2018-06-28T00:52:21.938Z,11.265408
2018-06-28T00:52:34.338Z,11.265408
2018-06-28T00:52:46.748Z,11.265408
2018-06-28T00:52:59.186Z,11.265408
2018-06-28T00:53:11.605Z,8.04672
2018-06-28T00:53:24.012Z,8.04672
2018-06-28T00:53:36.411Z,9.656064
2018-06-28T00:53:48.837Z,9.656064
2018-06-28T00:54:01.255Z,9.656064
2018-06-28T00:54:13.680Z,3.218688
2018-06-28T00:54:26.093Z,3.218688
2018-06-28T00:54:38.492Z,6.437376
2018-06-28T00:54:50.914Z,6.437376
2018-06-28T00:55:03.317Z,6.437376
2018-06-28T00:55:15.886Z,9.656064
2018-06-28T00:55:28.290Z,9.656064
2018-06-28T00:55:40.710Z,9.656064
2018-06-28T00:55:53.249Z,9.656064
2018-06-28T00:56:05.659Z,1.609344
2018-06-28T00:56:18.067Z,3.218688
2018-06-28T00:56:30.480Z,6.437376
2018-06-28T00:56:42.887Z,6.437376
2018-06-28T00:56:55.309Z,8.04672
2018-06-28T00:57:07.709Z,6.437376
2018-06-28T00:57:20.121Z,6.437376
2018-06-28T00:57:32.521Z,6.437376
2018-06-28T00:57:44.938Z,6.437376
2018-06-28T00:57:57.364Z,6.437376
2018-06-28T00:58:09.761Z,8.04672
2018-06-28T00:58:22.167Z,9.656064
2018-06-28T00:58:34.566Z,9.656064
2018-06-28T00:58:46.967Z,9.656064
2018-06-28T00:58:59.380Z,11.265408
2018-06-28T00:59:11.788Z,8.04672
2018-06-28T00:59:24.193Z,9.656064
2018-06-28T00:59:36.618Z,11.265408
2018-06-28T00:59:49.042Z,11.265408
2018-06-28T01:00:01.451Z,11.265408
2018-06-28T01:00:13.899Z,8.04672
2018-06-28T01:00:26.331Z,8.04672
2018-06-28T01:00:38.774Z,8.04672
2018-06-28T01:00:51.368Z,8.04672
2018-06-28T01:01:03.925Z,0
2018-06-28T01:01:16.481Z,3.218688
2018-06-28T01:01:28.895Z,8.04672
2018-06-28T01:01:41.297Z,8.04672
2018-06-28T01:01:53.737Z,8.04672
2018-06-28T01:02:06.149Z,8.04672
2018-06-28T01:02:18.574Z,8.04672
2018-06-28T01:02:30.964Z,8.04672
2018-06-28T01:02:43.379Z,11.265408
2018-06-28T01:02:55.786Z,11.265408
2018-06-28T01:03:08.215Z,6.437376
2018-06-28T01:03:20.687Z,6.437376
2018-06-28T01:03:33.094Z,6.437376
2018-06-28T01:03:45.491Z,6.437376
2018-06-28T01:03:57.891Z,6.437376
2018-06-28T01:04:10.299Z,3.218688
2018-06-28T01:04:22.717Z,3.218688
2018-06-28T01:04:35.122Z,8.04672
2018-06-28T01:04:47.535Z,8.04672
2018-06-28T01:04:59.945Z,8.04672
2018-06-28T01:05:12.412Z,3.218688
2018-06-28T01:05:24.832Z,6.437376
2018-06-28T01:05:37.252Z,9.656064
2018-06-28T01:05:49.677Z,9.656064
2018-06-28T01:06:02.093Z,9.656064
2018-06-28T01:06:14.512Z,8.04672
2018-06-28T01:06:26.997Z,8.04672
2018-06-28T01:06:39.415Z,9.656064
2018-06-28T01:06:51.821Z,9.656064
2018-06-28T01:07:04.233Z,1.609344
2018-06-28T01:07:16.789Z,3.218688
2018-06-28T01:07:29.196Z,3.218688
2018-06-28T01:07:41.661Z,3.218688
2018-06-28T01:07:54.066Z,3.218688
2018-06-28T01:08:06.614Z,3.218688
2018-06-28T01:08:19.029Z,3.218688
2018-06-28T01:08:31.436Z,4.828032
2018-06-28T01:08:43.848Z,4.828032
2018-06-28T01:08:56.345Z,6.437376
2018-06-28T01:09:08.768Z,4.828032
2018-06-28T01:09:21.171Z,4.828032
2018-06-28T01:09:33.590Z,6.437376
2018-06-28T01:09:46.001Z,6.437376
2018-06-28T01:09:58.418Z,6.437376
2018-06-28T01:10:10.834Z,1.609344
2018-06-28T01:10:23.252Z,3.218688
2018-06-28T01:10:35.657Z,3.218688
2018-06-28T01:10:48.069Z,3.218688
2018-06-28T01:11:00.479Z,3.218688
2018-06-28T01:11:12.890Z,3.218688
2018-06-28T01:11:25.290Z,9.656064
2018-06-28T01:11:37.719Z,9.656064
2018-06-28T01:11:50.139Z,9.656064
2018-06-28T01:12:02.544Z,9.656064
2018-06-28T01:12:14.944Z,8.04672
2018-06-28T01:12:27.334Z,8.04672
2018-06-28T01:12:39.743Z,8.04672
2018-06-28T01:12:52.151Z,8.04672
2018-06-28T01:13:04.574Z,6.437376
2018-06-28T01:13:16.984Z,8.04672
2018-06-28T01:13:29.397Z,9.656064
2018-06-28T01:13:41.800Z,9.656064
2018-06-28T01:13:54.309Z,9.656064
2018-06-28T01:14:06.766Z,8.04672
2018-06-28T01:14:19.160Z,8.04672
2018-06-28T01:14:31.558Z,8.04672
2018-06-28T01:14:43.981Z,8.04672
2018-06-28T01:14:56.381Z,8.04672
2018-06-28T01:15:08.798Z,1.609344
2018-06-28T01:15:21.197Z,3.218688
2018-06-28T01:15:33.660Z,8.04672
2018-06-28T01:15:46.082Z,8.04672
2018-06-28T01:15:58.498Z,8.04672
2018-06-28T01:16:10.896Z,6.437376
2018-06-28T01:16:23.303Z,8.04672
2018-06-28T01:16:35.707Z,8.04672
2018-06-28T01:16:48.097Z,11.265408
2018-06-28T01:17:00.494Z,11.265408
2018-06-28T01:17:12.896Z,8.04672
2018-06-28T01:17:25.298Z,8.04672
2018-06-28T01:17:37.713Z,8.04672
2018-06-28T01:17:50.124Z,9.656064
2018-06-28T01:18:02.522Z,9.656064
2018-06-28T01:18:14.937Z,4.828032
2018-06-28T01:18:27.343Z,6.437376
2018-06-28T01:18:39.957Z,6.437376
2018-06-28T01:18:52.403Z,6.437376
2018-06-28T01:19:04.805Z,3.218688
2018-06-28T01:19:17.212Z,3.218688
2018-06-28T01:19:29.669Z,3.218688
2018-06-28T01:19:42.085Z,4.828032
2018-06-28T01:19:54.496Z,8.04672
2018-06-28T01:20:06.910Z,3.218688
2018-06-28T01:20:19.326Z,4.828032
2018-06-28T01:20:31.735Z,6.437376
2018-06-28T01:20:44.149Z,6.437376
2018-06-28T01:20:56.566Z,8.04672
2018-06-28T01:21:08.986Z,6.437376
2018-06-28T01:21:21.441Z,6.437376
2018-06-28T01:21:33.858Z,6.437376
2018-06-28T01:21:46.264Z,6.437376
2018-06-28T01:21:58.694Z,6.437376
2018-06-28T01:22:11.135Z,1.609344
2018-06-28T01:22:23.529Z,3.218688
2018-06-28T01:22:35.927Z,3.218688
2018-06-28T01:22:48.332Z,3.218688
2018-06-28T01:23:00.801Z,3.218688
2018-06-28T01:23:13.411Z,0
2018-06-28T01:23:25.821Z,1.609344
2018-06-28T01:23:38.220Z,3.218688
2018-06-28T01:23:50.631Z,3.218688
2018-06-28T01:24:03.197Z,3.218688
2018-06-28T01:24:15.600Z,4.828032
2018-06-28T01:24:28.034Z,4.828032
2018-06-28T01:24:40.457Z,4.828032
2018-06-28T01:24:52.874Z,4.828032
2018-06-28T01:25:05.297Z,3.218688
2018-06-28T01:25:17.732Z,3.218688
2018-06-28T01:25:30.152Z,8.04672
2018-06-28T01:25:42.564Z,11.265408
2018-06-28T01:25:54.976Z,11.265408
2018-06-28T01:26:07.435Z,6.437376
2018-06-28T01:26:19.849Z,6.437376
2018-06-28T01:26:32.248Z,9.656064
2018-06-28T01:26:44.672Z,9.656064
2018-06-28T01:26:57.081Z,9.656064
2018-06-28T01:27:09.519Z,6.437376
2018-06-28T01:27:21.944Z,6.437376
2018-06-28T01:27:34.344Z,6.437376
2018-06-28T01:27:46.745Z,6.437376
2018-06-28T01:27:59.167Z,6.437376
2018-06-28T01:28:11.567Z,8.04672
2018-06-28T01:28:23.985Z,9.656064
2018-06-28T01:28:36.397Z,9.656064
2018-06-28T01:28:48.810Z,9.656064
2018-06-28T01:29:01.267Z,9.656064
2018-06-28T01:29:13.674Z,3.218688
2018-06-28T01:29:26.112Z,3.218688
2018-06-28T01:29:38.533Z,3.218688
2018-06-28T01:29:50.950Z,3.218688
2018-06-28T01:30:03.364Z,3.218688
2018-06-28T01:30:15.796Z,3.218688
2018-06-28T01:30:28.204Z,3.218688
2018-06-28T01:30:40.625Z,3.218688
2018-06-28T01:30:53.042Z,4.828032
2018-06-28T01:31:05.443Z,4.828032
2018-06-28T01:31:17.859Z,9.656064
2018-06-28T01:31:30.268Z,9.656064
2018-06-28T01:31:42.682Z,9.656064
2018-06-28T01:31:55.098Z,9.656064
2018-06-28T01:32:07.515Z,1.609344
2018-06-28T01:32:19.919Z,9.656064
2018-06-28T01:32:32.443Z,9.656064
2018-06-28T01:32:44.845Z,9.656064
2018-06-28T01:32:57.246Z,9.656064
2018-06-28T01:33:09.650Z,3.218688
2018-06-28T01:33:22.057Z,3.218688
2018-06-28T01:33:34.461Z,3.218688
2018-06-28T01:33:46.863Z,3.218688
2018-06-28T01:33:59.265Z,3.218688
2018-06-28T01:34:11.676Z,9.656064
2018-06-28T01:34:24.097Z,9.656064
2018-06-28T01:34:36.515Z,9.656064
2018-06-28T01:34:48.920Z,9.656064
2018-06-28T01:35:01.343Z,9.656064
2018-06-28T01:35:13.765Z,8.04672
2018-06-28T01:35:26.187Z,8.04672
2018-06-28T01:35:38.590Z,8.04672
2018-06-28T01:35:51.007Z,8.04672
2018-06-28T01:36:03.671Z,8.04672
2018-06-28T01:36:16.092Z,4.828032
2018-06-28T01:36:28.499Z,4.828032
2018-06-28T01:36:40.933Z,4.828032
2018-06-28T01:36:53.396Z,4.828032
2018-06-28T01:37:05.820Z,3.218688
2018-06-28T01:37:18.226Z,3.218688
2018-06-28T01:37:30.637Z,3.218688
2018-06-28T01:37:43.033Z,6.437376
2018-06-28T01:37:55.571Z,6.437376
2018-06-28T01:38:07.978Z,6.437376
2018-06-28T01:38:20.384Z,6.437376
2018-06-28T01:38:32.798Z,6.437376
2018-06-28T01:38:45.221Z,6.437376
2018-06-28T01:38:57.687Z,6.437376
2018-06-28T01:39:10.093Z,3.218688
2018-06-28T01:39:22.502Z,4.828032
2018-06-28T01:39:34.917Z,4.828032
2018-06-28T01:39:47.347Z,4.828032
2018-06-28T01:39:59.754Z,4.828032
2018-06-28T01:40:12.171Z,3.218688
2018-06-28T01:40:24.583Z,3.218688
2018-06-28T01:40:37.049Z,6.437376
2018-06-28T01:40:49.476Z,6.437376
2018-06-28T01:41:01.900Z,8.04672
2018-06-28T01:41:14.305Z,6.437376
2018-06-28T01:41:26.719Z,6.437376
2018-06-28T01:41:39.182Z,8.04672
2018-06-28T01:41:51.616Z,8.04672
2018-06-28T01:42:04.103Z,1.609344
2018-06-28T01:42:16.497Z,3.218688
2018-06-28T01:42:28.894Z,6.437376
2018-06-28T01:42:41.314Z,6.437376
2018-06-28T01:42:53.755Z,6.437376
2018-06-28T01:43:06.172Z,9.656064
2018-06-28T01:43:18.573Z,9.656064
2018-06-28T01:43:30.980Z,9.656064
2018-06-28T01:43:43.414Z,9.656064
2018-06-28T01:43:55.822Z,9.656064
2018-06-28T01:44:08.225Z,4.828032
2018-06-28T01:44:20.636Z,4.828032
2018-06-28T01:44:33.051Z,4.828032
2018-06-28T01:44:45.472Z,4.828032
2018-06-28T01:44:57.887Z,4.828032
2018-06-28T01:45:10.289Z,1.609344
2018-06-28T01:45:22.715Z,1.609344
2018-06-28T01:45:35.127Z,1.609344
2018-06-28T01:45:47.544Z,1.609344
2018-06-28T01:46:00.028Z,3.218688
2018-06-28T01:46:12.441Z,9.656064
2018-06-28T01:46:24.881Z,11.265408
2018-06-28T01:46:37.330Z,11.265408
2018-06-28T01:46:50.322Z,11.265408
2018-06-28T01:47:03.359Z,11.265408
2018-06-28T01:47:15.776Z,1.609344
2018-06-28T01:47:28.175Z,3.218688
2018-06-28T01:47:40.586Z,3.218688
2018-06-28T01:47:53.140Z,3.218688
2018-06-28T01:48:05.626Z,1.609344
2018-06-28T01:48:18.066Z,6.437376
2018-06-28T01:48:30.486Z,6.437376
2018-06-28T01:48:42.954Z,6.437376
2018-06-28T01:48:55.412Z,6.437376
2018-06-28T01:49:07.865Z,3.218688
2018-06-28T01:49:20.270Z,3.218688
2018-06-28T01:49:32.682Z,3.218688
2018-06-28T01:49:45.127Z,3.218688
2018-06-28T01:49:57.558Z,6.437376
2018-06-28T01:50:09.976Z,6.437376
2018-06-28T01:50:22.399Z,6.437376
2018-06-28T01:50:34.854Z,6.437376
2018-06-28T01:50:47.279Z,6.437376
2018-06-28T01:50:59.727Z,6.437376
2018-06-28T01:51:12.210Z,3.218688
2018-06-28T01:51:24.640Z,6.437376
2018-06-28T01:51:37.066Z,6.437376
2018-06-28T01:51:49.472Z,6.437376
2018-06-28T01:52:01.887Z,8.04672
2018-06-28T01:52:14.367Z,6.437376
2018-06-28T01:52:26.779Z,8.04672
2018-06-28T01:52:39.199Z,8.04672
2018-06-28T01:52:51.670Z,8.04672
2018-06-28T01:53:04.729Z,1.609344
2018-06-28T01:53:17.403Z,1.609344
2018-06-28T01:53:29.834Z,1.609344
2018-06-28T01:53:42.296Z,4.828032
2018-06-28T01:53:54.702Z,4.828032
2018-06-28T01:54:07.175Z,3.218688
2018-06-28T01:54:19.578Z,6.437376
2018-06-28T01:54:32.003Z,6.437376
2018-06-28T01:54:44.414Z,6.437376
2018-06-28T01:54:56.843Z,8.04672
2018-06-28T01:55:09.247Z,6.437376
2018-06-28T01:55:21.755Z,6.437376
2018-06-28T01:55:34.182Z,6.437376
2018-06-28T01:55:46.757Z,6.437376
2018-06-28T01:55:59.177Z,6.437376
2018-06-28T01:56:11.599Z,1.609344
2018-06-28T01:56:24.006Z,1.609344
2018-06-28T01:56:36.409Z,3.218688
2018-06-28T01:56:48.836Z,3.218688
2018-06-28T01:57:01.270Z,3.218688
2018-06-28T01:57:13.670Z,6.437376
2018-06-28T01:57:26.085Z,8.04672
2018-06-28T01:57:38.490Z,8.04672
2018-06-28T01:57:50.886Z,8.04672
2018-06-28T01:58:03.300Z,8.04672
2018-06-28T01:58:15.712Z,6.437376
2018-06-28T01:58:28.134Z,6.437376
2018-06-28T01:58:40.532Z,6.437376
2018-06-28T01:58:52.959Z,8.04672
2018-06-28T01:59:05.371Z,4.828032
2018-06-28T01:59:17.772Z,4.828032
2018-06-28T01:59:30.183Z,4.828032
2018-06-28T01:59:42.583Z,4.828032
2018-06-28T01:59:54.988Z,4.828032
2018-06-28T02:00:07.417Z,3.218688
2018-06-28T02:00:19.844Z,3.218688
2018-06-28T02:00:32.359Z,4.828032
2018-06-28T02:00:44.831Z,4.828032
2018-06-28T02:00:57.329Z,4.828032
2018-06-28T02:01:10.047Z,6.437376
2018-06-28T02:01:22.520Z,8.04672
2018-06-28T02:01:34.955Z,8.04672
2018-06-28T02:01:47.390Z,9.656064
2018-06-28T02:01:59.817Z,9.656064
2018-06-28T02:02:12.248Z,8.04672
2018-06-28T02:02:24.664Z,8.04672
2018-06-28T02:02:37.099Z,8.04672
2018-06-28T02:02:49.546Z,8.04672
2018-06-28T02:03:02.015Z,8.04672
2018-06-28T02:03:14.443Z,1.609344
2018-06-28T02:03:26.852Z,1.609344
2018-06-28T02:03:39.262Z,1.609344
2018-06-28T02:03:51.668Z,1.609344
2018-06-28T02:04:04.126Z,3.218688
2018-06-28T02:04:16.555Z,3.218688
2018-06-28T02:04:28.982Z,3.218688
2018-06-28T02:04:41.394Z,3.218688
2018-06-28T02:04:53.816Z,3.218688
2018-06-28T02:05:06.238Z,1.609344
2018-06-28T02:05:18.674Z,3.218688
2018-06-28T02:05:31.080Z,3.218688
2018-06-28T02:05:43.557Z,4.828032
2018-06-28T02:05:55.977Z,8.04672
2018-06-28T02:06:08.389Z,11.265408
2018-06-28T02:06:20.828Z,11.265408
2018-06-28T02:06:33.233Z,11.265408
2018-06-28T02:06:45.653Z,11.265408
2018-06-28T02:06:58.059Z,11.265408
2018-06-28T02:07:10.654Z,3.218688
2018-06-28T02:07:23.069Z,8.04672
2018-06-28T02:07:35.471Z,8.04672
2018-06-28T02:07:47.877Z,8.04672
2018-06-28T02:08:00.326Z,8.04672
2018-06-28T02:08:12.868Z,1.609344
2018-06-28T02:08:25.337Z,3.218688
2018-06-28T02:08:37.756Z,4.828032
2018-06-28T02:08:50.174Z,6.437376
2018-06-28T02:09:02.579Z,9.656064
2018-06-28T02:09:14.990Z,11.265408
2018-06-28T02:09:27.411Z,11.265408
2018-06-28T02:09:39.826Z,11.265408
2018-06-28T02:09:52.228Z,11.265408
2018-06-28T02:10:04.662Z,3.218688
2018-06-28T02:10:17.080Z,3.218688
2018-06-28T02:10:29.488Z,3.218688
2018-06-28T02:10:41.983Z,3.218688
2018-06-28T02:10:54.389Z,3.218688
2018-06-28T02:11:06.819Z,3.218688
2018-06-28T02:11:19.255Z,6.437376
2018-06-28T02:11:31.674Z,6.437376
2018-06-28T02:11:44.094Z,6.437376
2018-06-28T02:11:56.494Z,8.04672
2018-06-28T02:12:08.900Z,8.04672
2018-06-28T02:12:21.303Z,8.04672
2018-06-28T02:12:33.750Z,8.04672
2018-06-28T02:12:46.155Z,8.04672
2018-06-28T02:12:58.555Z,9.656064
2018-06-28T02:13:10.956Z,6.437376
2018-06-28T02:13:23.411Z,6.437376
2018-06-28T02:13:35.819Z,6.437376
2018-06-28T02:13:48.239Z,6.437376
2018-06-28T02:14:00.644Z,6.437376
2018-06-28T02:14:13.036Z,6.437376
2018-06-28T02:14:25.428Z,6.437376
2018-06-28T02:14:37.828Z,8.04672
2018-06-28T02:14:50.299Z,8.04672
2018-06-28T02:15:02.734Z,8.04672
2018-06-28T02:15:15.157Z,6.437376
2018-06-28T02:15:27.561Z,6.437376
2018-06-28T02:15:39.998Z,6.437376
2018-06-28T02:15:52.403Z,6.437376
2018-06-28T02:16:04.818Z,0
2018-06-28T02:16:17.343Z,1.609344
2018-06-28T02:16:29.798Z,1.609344
2018-06-28T02:16:42.206Z,1.609344
2018-06-28T02:16:54.645Z,1.609344
2018-06-28T02:17:07.075Z,0
2018-06-28T02:17:19.491Z,0
2018-06-28T02:17:31.886Z,0
2018-06-28T02:17:44.291Z,0
2018-06-28T02:17:56.709Z,0
2018-06-28T02:18:09.113Z,0
2018-06-28T02:18:21.537Z,3.218688
2018-06-28T02:18:33.946Z,9.656064
2018-06-28T02:18:46.402Z,9.656064
2018-06-28T02:18:58.812Z,9.656064
2018-06-28T02:19:11.255Z,3.218688
2018-06-28T02:19:23.687Z,6.437376
2018-06-28T02:19:36.096Z,6.437376
2018-06-28T02:19:48.495Z,6.437376
2018-06-28T02:20:00.902Z,6.437376
2018-06-28T02:20:13.321Z,3.218688
2018-06-28T02:20:25.739Z,3.218688
2018-06-28T02:20:38.149Z,3.218688
2018-06-28T02:20:50.552Z,3.218688
2018-06-28T02:21:02.977Z,3.218688
2018-06-28T02:21:15.397Z,1.609344
2018-06-28T02:21:27.843Z,1.609344
2018-06-28T02:21:40.260Z,1.609344
2018-06-28T02:21:52.673Z,4.828032
2018-06-28T02:22:05.097Z,3.218688
2018-06-28T02:22:17.515Z,9.656064
2018-06-28T02:22:29.950Z,9.656064
2018-06-28T02:22:42.344Z,9.656064
2018-06-28T02:22:54.782Z,9.656064
2018-06-28T02:23:07.357Z,3.218688
2018-06-28T02:23:19.775Z,6.437376
2018-06-28T02:23:32.226Z,6.437376
2018-06-28T02:23:44.631Z,6.437376
2018-06-28T02:23:57.048Z,6.437376
2018-06-28T02:24:09.634Z,3.218688
2018-06-28T02:24:22.055Z,3.218688
2018-06-28T02:24:34.454Z,4.828032
2018-06-28T02:24:46.854Z,4.828032
2018-06-28T02:24:59.276Z,4.828032
2018-06-28T02:25:11.694Z,3.218688
2018-06-28T02:25:24.155Z,6.437376
2018-06-28T02:25:36.561Z,6.437376
2018-06-28T02:25:48.981Z,6.437376
2018-06-28T02:26:01.393Z,6.437376
2018-06-28T02:26:13.866Z,3.218688
2018-06-28T02:26:26.271Z,4.828032
2018-06-28T02:26:38.673Z,8.04672
2018-06-28T02:26:51.073Z,8.04672